sensor_id;sensor_type;location;lat;lon;timestamp;P1;durP1;ratioP1;P2;durP2;ratioP2
78989;SDS011;68390;52.130;21.218;2023-03-14T00:01:46;12.95;;;6.22;;
78989;SDS011;68390;52.130;21.218;2023-03-14T00:04:13;11.93;;;5.95;;
78989;SDS011;68390;52.130;21.218;2023-03-14T00:06:39;12.43;;;6.68;;
78989;SDS011;68390;52.130;21.218;2023-03-14T00:09:05;11.65;;;6.43;;
78989;SDS011;68390;52.130;21.218;2023-03-14T00:11:31;11.57;;;6.47;;
78989;SDS011;68390;52.130;21.218;2023-03-14T00:14:00;9.60;;;6.35;;
78989;SDS011;68390;52.130;21.218;2023-03-14T00:16:25;12.10;;;6.22;;
78989;SDS011;68390;52.130;21.218;2023-03-14T00:18:51;12.85;;;6.78;;
78989;SDS011;68390;52.130;21.218;2023-03-14T00:21:17;11.30;;;6.32;;
78989;SDS011;68390;52.130;21.218;2023-03-14T00:23:43;9.88;;;6.13;;
78989;SDS011;68390;52.130;21.218;2023-03-14T00:26:16;10.55;;;6.90;;
78989;SDS011;68390;52.130;21.218;2023-03-14T00:28:43;11.07;;;5.95;;
78989;SDS011;68390;52.130;21.218;2023-03-14T00:31:11;11.27;;;6.38;;
78989;SDS011;68390;52.130;21.218;2023-03-14T00:33:38;10.20;;;5.82;;
78989;SDS011;68390;52.130;21.218;2023-03-14T00:38:32;10.88;;;6.53;;
78989;SDS011;68390;52.130;21.218;2023-03-14T00:40:58;12.00;;;6.50;;
78989;SDS011;68390;52.130;21.218;2023-03-14T00:43:24;13.52;;;6.28;;
78989;SDS011;68390;52.130;21.218;2023-03-14T00:45:50;12.57;;;6.85;;
78989;SDS011;68390;52.130;21.218;2023-03-14T00:48:17;13.95;;;6.75;;
78989;SDS011;68390;52.130;21.218;2023-03-14T00:50:44;11.73;;;6.82;;
78989;SDS011;68390;52.130;21.218;2023-03-14T00:53:10;11.90;;;6.70;;
78989;SDS011;68390;52.130;21.218;2023-03-14T00:55:36;11.25;;;6.85;;
78989;SDS011;68390;52.130;21.218;2023-03-14T00:58:03;12.98;;;7.20;;
78989;SDS011;68390;52.130;21.218;2023-03-14T01:00:28;13.27;;;7.22;;
78989;SDS011;68390;52.130;21.218;2023-03-14T01:02:54;13.00;;;7.10;;
78989;SDS011;68390;52.130;21.218;2023-03-14T01:05:21;13.75;;;7.30;;
78989;SDS011;68390;52.130;21.218;2023-03-14T01:07:47;13.43;;;6.22;;
78989;SDS011;68390;52.130;21.218;2023-03-14T01:10:13;12.77;;;6.45;;
78989;SDS011;68390;52.130;21.218;2023-03-14T01:12:39;10.23;;;6.13;;
78989;SDS011;68390;52.130;21.218;2023-03-14T01:15:05;10.60;;;5.80;;
78989;SDS011;68390;52.130;21.218;2023-03-14T01:17:31;9.20;;;6.28;;
78989;SDS011;68390;52.130;21.218;2023-03-14T01:19:57;11.55;;;5.72;;
78989;SDS011;68390;52.130;21.218;2023-03-14T01:22:23;10.30;;;6.43;;
78989;SDS011;68390;52.130;21.218;2023-03-14T01:24:48;11.30;;;6.05;;
78989;SDS011;68390;52.130;21.218;2023-03-14T01:27:14;10.10;;;6.13;;
78989;SDS011;68390;52.130;21.218;2023-03-14T01:29:39;10.98;;;5.68;;
78989;SDS011;68390;52.130;21.218;2023-03-14T01:32:05;12.90;;;6.15;;
78989;SDS011;68390;52.130;21.218;2023-03-14T01:34:30;9.10;;;5.88;;
78989;SDS011;68390;52.130;21.218;2023-03-14T01:36:56;11.70;;;6.25;;
78989;SDS011;68390;52.130;21.218;2023-03-14T01:39:21;13.45;;;6.22;;
78989;SDS011;68390;52.130;21.218;2023-03-14T01:41:47;9.48;;;5.55;;
78989;SDS011;68390;52.130;21.218;2023-03-14T01:44:13;12.90;;;6.38;;
78989;SDS011;68390;52.130;21.218;2023-03-14T01:46:42;11.88;;;6.13;;
78989;SDS011;68390;52.130;21.218;2023-03-14T01:49:26;10.05;;;6.03;;
78989;SDS011;68390;52.130;21.218;2023-03-14T01:54:28;10.90;;;5.70;;
78989;SDS011;68390;52.130;21.218;2023-03-14T01:57:19;10.60;;;5.95;;
78989;SDS011;68390;52.130;21.218;2023-03-14T01:59:51;10.40;;;5.85;;
78989;SDS011;68390;52.130;21.218;2023-03-14T02:02:21;10.40;;;6.03;;
78989;SDS011;68390;52.130;21.218;2023-03-14T02:04:49;14.45;;;6.65;;
78989;SDS011;68390;52.130;21.218;2023-03-14T02:07:17;11.55;;;6.57;;
78989;SDS011;68390;52.130;21.218;2023-03-14T02:09:47;15.07;;;7.20;;
78989;SDS011;68390;52.130;21.218;2023-03-14T02:12:15;13.98;;;6.63;;
78989;SDS011;68390;52.130;21.218;2023-03-14T02:14:41;10.50;;;6.25;;
78989;SDS011;68390;52.130;21.218;2023-03-14T02:17:12;10.10;;;5.57;;
78989;SDS011;68390;52.130;21.218;2023-03-14T02:19:52;10.93;;;5.45;;
78989;SDS011;68390;52.130;21.218;2023-03-14T02:22:59;10.93;;;5.57;;
78989;SDS011;68390;52.130;21.218;2023-03-14T02:28:13;8.80;;;5.47;;
78989;SDS011;68390;52.130;21.218;2023-03-14T02:30:39;9.43;;;5.50;;
78989;SDS011;68390;52.130;21.218;2023-03-14T02:38:34;9.30;;;4.95;;
78989;SDS011;68390;52.130;21.218;2023-03-14T02:41:06;8.55;;;5.13;;
78989;SDS011;68390;52.130;21.218;2023-03-14T02:43:32;9.93;;;5.22;;
78989;SDS011;68390;52.130;21.218;2023-03-14T02:45:58;9.20;;;5.28;;
78989;SDS011;68390;52.130;21.218;2023-03-14T02:48:26;10.68;;;5.22;;
78989;SDS011;68390;52.130;21.218;2023-03-14T02:50:56;10.60;;;5.18;;
78989;SDS011;68390;52.130;21.218;2023-03-14T02:53:25;8.05;;;5.03;;
78989;SDS011;68390;52.130;21.218;2023-03-14T02:55:56;8.60;;;5.72;;
78989;SDS011;68390;52.130;21.218;2023-03-14T02:58:22;9.23;;;5.47;;
78989;SDS011;68390;52.130;21.218;2023-03-14T03:00:48;10.95;;;5.68;;
78989;SDS011;68390;52.130;21.218;2023-03-14T03:03:14;10.68;;;5.20;;
78989;SDS011;68390;52.130;21.218;2023-03-14T03:05:39;9.68;;;5.57;;
78989;SDS011;68390;52.130;21.218;2023-03-14T03:08:05;7.85;;;5.20;;
78989;SDS011;68390;52.130;21.218;2023-03-14T03:10:31;8.82;;;5.32;;
78989;SDS011;68390;52.130;21.218;2023-03-14T03:12:57;9.05;;;5.40;;
78989;SDS011;68390;52.130;21.218;2023-03-14T03:15:23;7.85;;;5.07;;
78989;SDS011;68390;52.130;21.218;2023-03-14T03:17:49;9.75;;;5.00;;
78989;SDS011;68390;52.130;21.218;2023-03-14T03:20:14;9.25;;;5.18;;
78989;SDS011;68390;52.130;21.218;2023-03-14T03:22:40;9.80;;;4.95;;
78989;SDS011;68390;52.130;21.218;2023-03-14T03:25:07;9.80;;;4.90;;
78989;SDS011;68390;52.130;21.218;2023-03-14T03:27:34;9.43;;;5.22;;
78989;SDS011;68390;52.130;21.218;2023-03-14T03:30:00;8.75;;;5.03;;
78989;SDS011;68390;52.130;21.218;2023-03-14T03:32:27;10.38;;;4.95;;
78989;SDS011;68390;52.130;21.218;2023-03-14T03:34:53;8.10;;;5.28;;
78989;SDS011;68390;52.130;21.218;2023-03-14T03:37:18;10.02;;;5.50;;
78989;SDS011;68390;52.130;21.218;2023-03-14T03:39:44;11.77;;;5.32;;
78989;SDS011;68390;52.130;21.218;2023-03-14T03:42:10;9.13;;;5.50;;
78989;SDS011;68390;52.130;21.218;2023-03-14T03:44:36;11.10;;;5.55;;
78989;SDS011;68390;52.130;21.218;2023-03-14T03:47:02;9.90;;;4.82;;
78989;SDS011;68390;52.130;21.218;2023-03-14T03:49:28;10.05;;;5.32;;
78989;SDS011;68390;52.130;21.218;2023-03-14T03:52:15;13.85;;;5.05;;
78989;SDS011;68390;52.130;21.218;2023-03-14T03:54:41;11.43;;;5.10;;
78989;SDS011;68390;52.130;21.218;2023-03-14T03:57:06;7.80;;;5.18;;
78989;SDS011;68390;52.130;21.218;2023-03-14T03:59:32;8.00;;;5.20;;
78989;SDS011;68390;52.130;21.218;2023-03-14T04:01:57;8.90;;;5.10;;
78989;SDS011;68390;52.130;21.218;2023-03-14T04:04:23;8.95;;;5.40;;
78989;SDS011;68390;52.130;21.218;2023-03-14T04:06:48;9.65;;;4.97;;
78989;SDS011;68390;52.130;21.218;2023-03-14T04:09:14;9.55;;;5.63;;
78989;SDS011;68390;52.130;21.218;2023-03-14T04:11:40;8.07;;;5.55;;
78989;SDS011;68390;52.130;21.218;2023-03-14T04:14:06;9.27;;;5.28;;
78989;SDS011;68390;52.130;21.218;2023-03-14T04:16:33;8.82;;;5.82;;
78989;SDS011;68390;52.130;21.218;2023-03-14T04:18:59;7.10;;;4.45;;
78989;SDS011;68390;52.130;21.218;2023-03-14T04:21:25;8.63;;;4.78;;
78989;SDS011;68390;52.130;21.218;2023-03-14T04:23:50;9.23;;;5.85;;
78989;SDS011;68390;52.130;21.218;2023-03-14T04:26:16;8.23;;;5.40;;
78989;SDS011;68390;52.130;21.218;2023-03-14T04:28:42;8.88;;;5.13;;
78989;SDS011;68390;52.130;21.218;2023-03-14T04:31:08;8.60;;;5.22;;
78989;SDS011;68390;52.130;21.218;2023-03-14T04:33:34;10.90;;;5.45;;
78989;SDS011;68390;52.130;21.218;2023-03-14T04:36:01;8.35;;;4.95;;
78989;SDS011;68390;52.130;21.218;2023-03-14T04:38:26;8.85;;;4.88;;
78989;SDS011;68390;52.130;21.218;2023-03-14T04:40:52;7.57;;;5.13;;
78989;SDS011;68390;52.130;21.218;2023-03-14T04:43:18;7.25;;;4.63;;
78989;SDS011;68390;52.130;21.218;2023-03-14T04:45:44;8.98;;;5.10;;
78989;SDS011;68390;52.130;21.218;2023-03-14T04:48:09;8.00;;;4.85;;
78989;SDS011;68390;52.130;21.218;2023-03-14T04:50:35;7.82;;;5.10;;
78989;SDS011;68390;52.130;21.218;2023-03-14T04:53:01;9.25;;;5.03;;
78989;SDS011;68390;52.130;21.218;2023-03-14T04:55:26;8.98;;;4.82;;
78989;SDS011;68390;52.130;21.218;2023-03-14T04:57:52;10.45;;;5.22;;
78989;SDS011;68390;52.130;21.218;2023-03-14T05:00:17;6.70;;;4.88;;
78989;SDS011;68390;52.130;21.218;2023-03-14T05:02:43;9.40;;;5.30;;
78989;SDS011;68390;52.130;21.218;2023-03-14T05:05:09;9.30;;;4.93;;
78989;SDS011;68390;52.130;21.218;2023-03-14T05:07:35;9.68;;;5.40;;
78989;SDS011;68390;52.130;21.218;2023-03-14T05:10:01;8.75;;;5.50;;
78989;SDS011;68390;52.130;21.218;2023-03-14T05:12:26;11.93;;;5.90;;
78989;SDS011;68390;52.130;21.218;2023-03-14T05:14:52;8.70;;;5.68;;
78989;SDS011;68390;52.130;21.218;2023-03-14T05:17:18;10.52;;;5.72;;
78989;SDS011;68390;52.130;21.218;2023-03-14T05:19:44;11.52;;;5.50;;
78989;SDS011;68390;52.130;21.218;2023-03-14T05:22:10;9.82;;;5.25;;
78989;SDS011;68390;52.130;21.218;2023-03-14T05:24:36;9.85;;;5.97;;
78989;SDS011;68390;52.130;21.218;2023-03-14T05:27:01;8.55;;;5.65;;
78989;SDS011;68390;52.130;21.218;2023-03-14T05:29:28;9.18;;;5.57;;
78989;SDS011;68390;52.130;21.218;2023-03-14T05:31:53;8.63;;;6.07;;
78989;SDS011;68390;52.130;21.218;2023-03-14T05:34:19;9.32;;;5.40;;
78989;SDS011;68390;52.130;21.218;2023-03-14T05:36:44;10.25;;;5.53;;
78989;SDS011;68390;52.130;21.218;2023-03-14T05:39:10;10.18;;;6.07;;
78989;SDS011;68390;52.130;21.218;2023-03-14T05:41:35;8.90;;;5.63;;
78989;SDS011;68390;52.130;21.218;2023-03-14T05:44:01;11.35;;;5.85;;
78989;SDS011;68390;52.130;21.218;2023-03-14T05:46:27;9.40;;;5.55;;
78989;SDS011;68390;52.130;21.218;2023-03-14T05:48:52;9.52;;;5.43;;
78989;SDS011;68390;52.130;21.218;2023-03-14T05:51:18;8.40;;;5.63;;
78989;SDS011;68390;52.130;21.218;2023-03-14T05:53:43;11.10;;;5.47;;
78989;SDS011;68390;52.130;21.218;2023-03-14T05:56:09;11.13;;;6.25;;
78989;SDS011;68390;52.130;21.218;2023-03-14T05:58:35;10.15;;;6.32;;
78989;SDS011;68390;52.130;21.218;2023-03-14T06:01:01;11.25;;;5.93;;
78989;SDS011;68390;52.130;21.218;2023-03-14T06:03:28;8.48;;;5.88;;
78989;SDS011;68390;52.130;21.218;2023-03-14T06:05:54;9.10;;;5.82;;
78989;SDS011;68390;52.130;21.218;2023-03-14T06:08:19;8.00;;;5.45;;
78989;SDS011;68390;52.130;21.218;2023-03-14T06:10:45;9.20;;;5.45;;
78989;SDS011;68390;52.130;21.218;2023-03-14T06:13:10;9.00;;;5.70;;
78989;SDS011;68390;52.130;21.218;2023-03-14T06:15:36;11.45;;;5.60;;
78989;SDS011;68390;52.130;21.218;2023-03-14T06:18:02;8.75;;;5.10;;
78989;SDS011;68390;52.130;21.218;2023-03-14T06:20:27;11.65;;;6.03;;
78989;SDS011;68390;52.130;21.218;2023-03-14T06:22:53;9.38;;;6.53;;
78989;SDS011;68390;52.130;21.218;2023-03-14T06:25:18;8.95;;;6.03;;
78989;SDS011;68390;52.130;21.218;2023-03-14T06:27:44;11.55;;;6.43;;
78989;SDS011;68390;52.130;21.218;2023-03-14T06:30:10;11.13;;;6.75;;
78989;SDS011;68390;52.130;21.218;2023-03-14T06:32:36;10.93;;;5.75;;
78989;SDS011;68390;52.130;21.218;2023-03-14T06:35:02;9.77;;;6.40;;
78989;SDS011;68390;52.130;21.218;2023-03-14T06:37:28;9.77;;;6.03;;
78989;SDS011;68390;52.130;21.218;2023-03-14T06:39:54;9.57;;;5.78;;
78989;SDS011;68390;52.130;21.218;2023-03-14T06:42:19;10.00;;;5.25;;
78989;SDS011;68390;52.130;21.218;2023-03-14T06:44:45;9.27;;;5.68;;
78989;SDS011;68390;52.130;21.218;2023-03-14T06:47:11;9.52;;;5.78;;
78989;SDS011;68390;52.130;21.218;2023-03-14T06:49:37;9.85;;;5.72;;
78989;SDS011;68390;52.130;21.218;2023-03-14T06:52:02;10.45;;;5.88;;
78989;SDS011;68390;52.130;21.218;2023-03-14T06:54:28;7.78;;;5.20;;
78989;SDS011;68390;52.130;21.218;2023-03-14T06:56:54;8.43;;;5.47;;
78989;SDS011;68390;52.130;21.218;2023-03-14T06:59:19;8.60;;;5.28;;
78989;SDS011;68390;52.130;21.218;2023-03-14T07:01:45;9.02;;;5.18;;
78989;SDS011;68390;52.130;21.218;2023-03-14T07:04:11;8.25;;;4.50;;
78989;SDS011;68390;52.130;21.218;2023-03-14T07:06:37;7.05;;;4.45;;
78989;SDS011;68390;52.130;21.218;2023-03-14T07:09:06;8.68;;;5.05;;
78989;SDS011;68390;52.130;21.218;2023-03-14T07:11:31;6.72;;;4.90;;
78989;SDS011;68390;52.130;21.218;2023-03-14T07:13:57;8.40;;;5.15;;
78989;SDS011;68390;52.130;21.218;2023-03-14T07:16:22;5.55;;;4.00;;
78989;SDS011;68390;52.130;21.218;2023-03-14T07:18:48;14.00;;;5.13;;
78989;SDS011;68390;52.130;21.218;2023-03-14T07:21:14;8.52;;;4.85;;
78989;SDS011;68390;52.130;21.218;2023-03-14T07:23:40;7.95;;;4.63;;
78989;SDS011;68390;52.130;21.218;2023-03-14T07:26:05;6.95;;;4.18;;
78989;SDS011;68390;52.130;21.218;2023-03-14T07:28:31;7.60;;;4.55;;
78989;SDS011;68390;52.130;21.218;2023-03-14T07:30:57;7.10;;;4.30;;
78989;SDS011;68390;52.130;21.218;2023-03-14T07:33:22;8.55;;;4.22;;
78989;SDS011;68390;52.130;21.218;2023-03-14T07:35:48;7.72;;;4.25;;
78989;SDS011;68390;52.130;21.218;2023-03-14T07:38:14;5.95;;;4.35;;
78989;SDS011;68390;52.130;21.218;2023-03-14T07:40:40;6.68;;;4.18;;
78989;SDS011;68390;52.130;21.218;2023-03-14T07:43:06;7.95;;;4.55;;
78989;SDS011;68390;52.130;21.218;2023-03-14T07:45:32;6.68;;;4.10;;
78989;SDS011;68390;52.130;21.218;2023-03-14T07:47:57;6.55;;;4.50;;
78989;SDS011;68390;52.130;21.218;2023-03-14T07:50:26;10.57;;;4.95;;
78989;SDS011;68390;52.130;21.218;2023-03-14T07:52:53;7.45;;;4.32;;
78989;SDS011;68390;52.130;21.218;2023-03-14T07:55:19;6.90;;;4.25;;
78989;SDS011;68390;52.130;21.218;2023-03-14T07:57:46;8.07;;;5.05;;
78989;SDS011;68390;52.130;21.218;2023-03-14T08:00:11;9.60;;;4.63;;
78989;SDS011;68390;52.130;21.218;2023-03-14T08:02:39;8.75;;;4.72;;
78989;SDS011;68390;52.130;21.218;2023-03-14T08:05:05;8.95;;;5.05;;
78989;SDS011;68390;52.130;21.218;2023-03-14T08:07:32;12.43;;;6.07;;
78989;SDS011;68390;52.130;21.218;2023-03-14T08:09:57;8.77;;;4.90;;
78989;SDS011;68390;52.130;21.218;2023-03-14T08:12:23;7.15;;;4.80;;
78989;SDS011;68390;52.130;21.218;2023-03-14T08:14:48;6.75;;;4.45;;
78989;SDS011;68390;52.130;21.218;2023-03-14T08:17:14;7.90;;;4.53;;
78989;SDS011;68390;52.130;21.218;2023-03-14T08:19:41;7.72;;;4.53;;
78989;SDS011;68390;52.130;21.218;2023-03-14T08:22:07;10.85;;;4.53;;
78989;SDS011;68390;52.130;21.218;2023-03-14T08:24:32;7.68;;;4.03;;
78989;SDS011;68390;52.130;21.218;2023-03-14T08:26:58;7.25;;;4.15;;
78989;SDS011;68390;52.130;21.218;2023-03-14T08:29:24;6.88;;;4.15;;
78989;SDS011;68390;52.130;21.218;2023-03-14T08:31:49;6.78;;;4.00;;
78989;SDS011;68390;52.130;21.218;2023-03-14T08:34:15;8.05;;;4.40;;
78989;SDS011;68390;52.130;21.218;2023-03-14T08:36:41;7.25;;;4.63;;
78989;SDS011;68390;52.130;21.218;2023-03-14T08:39:07;9.52;;;4.72;;
78989;SDS011;68390;52.130;21.218;2023-03-14T08:41:34;6.45;;;3.95;;
78989;SDS011;68390;52.130;21.218;2023-03-14T08:44:05;10.88;;;4.47;;
78989;SDS011;68390;52.130;21.218;2023-03-14T08:46:32;7.20;;;4.15;;
78989;SDS011;68390;52.130;21.218;2023-03-14T08:48:58;7.80;;;4.45;;
78989;SDS011;68390;52.130;21.218;2023-03-14T08:51:23;7.07;;;4.22;;
78989;SDS011;68390;52.130;21.218;2023-03-14T08:53:49;6.80;;;4.60;;
78989;SDS011;68390;52.130;21.218;2023-03-14T08:56:15;6.72;;;4.05;;
78989;SDS011;68390;52.130;21.218;2023-03-14T08:58:41;7.10;;;4.05;;
78989;SDS011;68390;52.130;21.218;2023-03-14T09:01:08;7.60;;;4.38;;
78989;SDS011;68390;52.130;21.218;2023-03-14T09:03:35;5.85;;;4.20;;
78989;SDS011;68390;52.130;21.218;2023-03-14T09:06:04;6.07;;;4.20;;
78989;SDS011;68390;52.130;21.218;2023-03-14T09:08:32;6.63;;;3.95;;
78989;SDS011;68390;52.130;21.218;2023-03-14T09:10:58;7.97;;;4.22;;
78989;SDS011;68390;52.130;21.218;2023-03-14T09:13:24;7.97;;;4.00;;
78989;SDS011;68390;52.130;21.218;2023-03-14T09:15:53;7.85;;;3.95;;
78989;SDS011;68390;52.130;21.218;2023-03-14T09:18:20;12.40;;;4.47;;
78989;SDS011;68390;52.130;21.218;2023-03-14T09:20:46;6.53;;;3.78;;
78989;SDS011;68390;52.130;21.218;2023-03-14T09:23:12;5.38;;;3.83;;
78989;SDS011;68390;52.130;21.218;2023-03-14T09:25:38;6.63;;;4.10;;
78989;SDS011;68390;52.130;21.218;2023-03-14T09:28:03;7.20;;;4.10;;
78989;SDS011;68390;52.130;21.218;2023-03-14T09:30:29;6.95;;;4.20;;
78989;SDS011;68390;52.130;21.218;2023-03-14T09:32:55;7.63;;;4.18;;
78989;SDS011;68390;52.130;21.218;2023-03-14T09:35:22;7.05;;;4.20;;
78989;SDS011;68390;52.130;21.218;2023-03-14T09:37:48;8.60;;;4.35;;
78989;SDS011;68390;52.130;21.218;2023-03-14T09:40:15;8.68;;;3.80;;
78989;SDS011;68390;52.130;21.218;2023-03-14T09:42:42;7.72;;;4.15;;
78989;SDS011;68390;52.130;21.218;2023-03-14T09:45:15;8.15;;;4.13;;
78989;SDS011;68390;52.130;21.218;2023-03-14T09:47:48;8.80;;;4.00;;
78989;SDS011;68390;52.130;21.218;2023-03-14T09:50:14;6.75;;;3.58;;
78989;SDS011;68390;52.130;21.218;2023-03-14T09:52:42;7.50;;;4.05;;
78989;SDS011;68390;52.130;21.218;2023-03-14T09:55:14;8.57;;;4.05;;
78989;SDS011;68390;52.130;21.218;2023-03-14T10:00:20;7.53;;;4.13;;
78989;SDS011;68390;52.130;21.218;2023-03-14T10:02:55;7.88;;;4.03;;
78989;SDS011;68390;52.130;21.218;2023-03-14T10:05:25;7.05;;;4.13;;
78989;SDS011;68390;52.130;21.218;2023-03-14T10:07:53;6.82;;;3.65;;
78989;SDS011;68390;52.130;21.218;2023-03-14T10:10:22;6.88;;;3.83;;
78989;SDS011;68390;52.130;21.218;2023-03-14T10:13:05;7.88;;;3.80;;
78989;SDS011;68390;52.130;21.218;2023-03-14T10:15:39;8.40;;;3.90;;
78989;SDS011;68390;52.130;21.218;2023-03-14T10:18:09;7.20;;;3.95;;
78989;SDS011;68390;52.130;21.218;2023-03-14T10:20:43;7.45;;;3.70;;
78989;SDS011;68390;52.130;21.218;2023-03-14T10:23:32;9.35;;;4.22;;
78989;SDS011;68390;52.130;21.218;2023-03-14T10:26:04;9.40;;;4.30;;
78989;SDS011;68390;52.130;21.218;2023-03-14T10:28:32;6.60;;;4.22;;
78989;SDS011;68390;52.130;21.218;2023-03-14T10:31:02;7.22;;;4.40;;
78989;SDS011;68390;52.130;21.218;2023-03-14T10:33:29;7.80;;;4.65;;
78989;SDS011;68390;52.130;21.218;2023-03-14T10:36:19;14.88;;;4.75;;
78989;SDS011;68390;52.130;21.218;2023-03-14T10:38:47;6.63;;;4.03;;
78989;SDS011;68390;52.130;21.218;2023-03-14T10:43:56;6.25;;;3.50;;
78989;SDS011;68390;52.130;21.218;2023-03-14T10:46:24;6.40;;;3.63;;
78989;SDS011;68390;52.130;21.218;2023-03-14T10:48:53;8.32;;;4.15;;
78989;SDS011;68390;52.130;21.218;2023-03-14T10:51:20;7.38;;;3.75;;
78989;SDS011;68390;52.130;21.218;2023-03-14T10:56:27;7.78;;;3.67;;
78989;SDS011;68390;52.130;21.218;2023-03-14T10:59:00;7.53;;;4.07;;
78989;SDS011;68390;52.130;21.218;2023-03-14T11:07:03;6.65;;;3.60;;
78989;SDS011;68390;52.130;21.218;2023-03-14T11:13:30;6.88;;;3.80;;
78989;SDS011;68390;52.130;21.218;2023-03-14T11:21:02;7.47;;;4.57;;
78989;SDS011;68390;52.130;21.218;2023-03-14T11:29:10;5.90;;;3.88;;
78989;SDS011;68390;52.130;21.218;2023-03-14T11:31:45;9.23;;;4.30;;
78989;SDS011;68390;52.130;21.218;2023-03-14T11:34:16;9.23;;;3.83;;
78989;SDS011;68390;52.130;21.218;2023-03-14T11:39:16;6.55;;;3.80;;
78989;SDS011;68390;52.130;21.218;2023-03-14T11:41:47;6.72;;;3.67;;
78989;SDS011;68390;52.130;21.218;2023-03-14T11:44:36;6.07;;;3.70;;
78989;SDS011;68390;52.130;21.218;2023-03-14T11:47:23;7.75;;;3.70;;
78989;SDS011;68390;52.130;21.218;2023-03-14T11:52:58;7.43;;;3.92;;
78989;SDS011;68390;52.130;21.218;2023-03-14T11:55:31;7.00;;;3.70;;
78989;SDS011;68390;52.130;21.218;2023-03-14T11:58:00;6.97;;;3.63;;
78989;SDS011;68390;52.130;21.218;2023-03-14T12:00:34;5.25;;;4.00;;
78989;SDS011;68390;52.130;21.218;2023-03-14T12:08:56;8.85;;;4.40;;
78989;SDS011;68390;52.130;21.218;2023-03-14T12:11:39;9.73;;;4.22;;
78989;SDS011;68390;52.130;21.218;2023-03-14T12:14:19;6.95;;;3.92;;
78989;SDS011;68390;52.130;21.218;2023-03-14T12:16:52;7.00;;;3.97;;
78989;SDS011;68390;52.130;21.218;2023-03-14T12:21:56;9.77;;;4.45;;
78989;SDS011;68390;52.130;21.218;2023-03-14T12:24:29;8.55;;;4.18;;
78989;SDS011;68390;52.130;21.218;2023-03-14T12:26:58;6.47;;;3.97;;
78989;SDS011;68390;52.130;21.218;2023-03-14T12:29:26;9.15;;;4.70;;
78989;SDS011;68390;52.130;21.218;2023-03-14T12:34:31;7.70;;;4.22;;
78989;SDS011;68390;52.130;21.218;2023-03-14T12:48:00;9.35;;;4.22;;
78989;SDS011;68390;52.130;21.218;2023-03-14T12:50:46;8.15;;;4.50;;
78989;SDS011;68390;52.130;21.218;2023-03-14T12:58:38;9.40;;;4.25;;
78989;SDS011;68390;52.130;21.218;2023-03-14T13:01:25;17.77;;;4.88;;
78989;SDS011;68390;52.130;21.218;2023-03-14T13:03:51;9.38;;;4.40;;
78989;SDS011;68390;52.130;21.218;2023-03-14T13:12:02;15.45;;;5.05;;
78989;SDS011;68390;52.130;21.218;2023-03-14T13:14:33;7.18;;;4.05;;
78989;SDS011;68390;52.130;21.218;2023-03-14T13:17:00;7.95;;;5.18;;
78989;SDS011;68390;52.130;21.218;2023-03-14T13:19:28;8.05;;;4.38;;
78989;SDS011;68390;52.130;21.218;2023-03-14T13:21:59;9.50;;;5.07;;
78989;SDS011;68390;52.130;21.218;2023-03-14T13:24:27;10.10;;;5.22;;
78989;SDS011;68390;52.130;21.218;2023-03-14T13:26:54;8.43;;;5.45;;
78989;SDS011;68390;52.130;21.218;2023-03-14T13:31:54;8.50;;;5.07;;
78989;SDS011;68390;52.130;21.218;2023-03-14T13:34:25;9.00;;;5.38;;
78989;SDS011;68390;52.130;21.218;2023-03-14T13:36:53;9.13;;;4.68;;
78989;SDS011;68390;52.130;21.218;2023-03-14T13:39:20;10.43;;;5.50;;
78989;SDS011;68390;52.130;21.218;2023-03-14T13:41:50;10.00;;;4.80;;
78989;SDS011;68390;52.130;21.218;2023-03-14T13:44:17;8.30;;;5.07;;
78989;SDS011;68390;52.130;21.218;2023-03-14T13:47:04;8.98;;;5.28;;
78989;SDS011;68390;52.130;21.218;2023-03-14T13:49:34;8.30;;;5.47;;
78989;SDS011;68390;52.130;21.218;2023-03-14T13:52:03;9.02;;;5.03;;
78989;SDS011;68390;52.130;21.218;2023-03-14T13:54:46;7.95;;;4.85;;
78989;SDS011;68390;52.130;21.218;2023-03-14T13:57:11;9.52;;;5.13;;
78989;SDS011;68390;52.130;21.218;2023-03-14T13:59:37;6.60;;;4.40;;
78989;SDS011;68390;52.130;21.218;2023-03-14T14:02:10;7.95;;;5.22;;
78989;SDS011;68390;52.130;21.218;2023-03-14T14:04:39;9.85;;;6.32;;
78989;SDS011;68390;52.130;21.218;2023-03-14T14:07:06;9.65;;;5.80;;
78989;SDS011;68390;52.130;21.218;2023-03-14T14:09:38;9.30;;;5.78;;
78989;SDS011;68390;52.130;21.218;2023-03-14T14:15:13;9.02;;;5.10;;
78989;SDS011;68390;52.130;21.218;2023-03-14T14:17:45;11.70;;;6.63;;
78989;SDS011;68390;52.130;21.218;2023-03-14T14:22:56;6.95;;;4.78;;
78989;SDS011;68390;52.130;21.218;2023-03-14T14:25:23;7.57;;;4.93;;
78989;SDS011;68390;52.130;21.218;2023-03-14T14:27:49;8.18;;;4.60;;
78989;SDS011;68390;52.130;21.218;2023-03-14T14:32:44;8.65;;;5.13;;
78989;SDS011;68390;52.130;21.218;2023-03-14T14:35:22;7.90;;;4.75;;
78989;SDS011;68390;52.130;21.218;2023-03-14T14:37:49;8.85;;;5.47;;
78989;SDS011;68390;52.130;21.218;2023-03-14T14:40:19;10.48;;;5.45;;
78989;SDS011;68390;52.130;21.218;2023-03-14T14:42:47;10.25;;;5.07;;
78989;SDS011;68390;52.130;21.218;2023-03-14T14:45:16;10.25;;;5.50;;
78989;SDS011;68390;52.130;21.218;2023-03-14T14:48:04;8.23;;;4.57;;
78989;SDS011;68390;52.130;21.218;2023-03-14T14:50:36;7.65;;;5.20;;
78989;SDS011;68390;52.130;21.218;2023-03-14T14:53:27;9.65;;;5.57;;
78989;SDS011;68390;52.130;21.218;2023-03-14T14:55:54;8.23;;;5.22;;
78989;SDS011;68390;52.130;21.218;2023-03-14T14:58:27;9.10;;;5.78;;
78989;SDS011;68390;52.130;21.218;2023-03-14T15:01:07;11.15;;;5.68;;
78989;SDS011;68390;52.130;21.218;2023-03-14T15:03:38;9.00;;;5.10;;
78989;SDS011;68390;52.130;21.218;2023-03-14T15:06:08;10.13;;;5.90;;
78989;SDS011;68390;52.130;21.218;2023-03-14T15:08:37;9.15;;;5.47;;
78989;SDS011;68390;52.130;21.218;2023-03-14T15:11:03;10.10;;;6.13;;
78989;SDS011;68390;52.130;21.218;2023-03-14T15:13:28;12.82;;;5.88;;
78989;SDS011;68390;52.130;21.218;2023-03-14T15:15:54;16.10;;;6.90;;
78989;SDS011;68390;52.130;21.218;2023-03-14T15:18:22;11.95;;;6.80;;
78989;SDS011;68390;52.130;21.218;2023-03-14T15:20:49;11.75;;;6.22;;
78989;SDS011;68390;52.130;21.218;2023-03-14T15:23:16;14.15;;;6.60;;
78989;SDS011;68390;52.130;21.218;2023-03-14T15:25:43;9.85;;;6.18;;
78989;SDS011;68390;52.130;21.218;2023-03-14T15:28:21;10.93;;;5.75;;
78989;SDS011;68390;52.130;21.218;2023-03-14T15:30:49;10.13;;;5.85;;
78989;SDS011;68390;52.130;21.218;2023-03-14T15:33:16;8.77;;;5.85;;
78989;SDS011;68390;52.130;21.218;2023-03-14T15:35:43;9.63;;;5.60;;
78989;SDS011;68390;52.130;21.218;2023-03-14T15:38:12;9.05;;;6.03;;
78989;SDS011;68390;52.130;21.218;2023-03-14T15:40:40;9.13;;;5.30;;
78989;SDS011;68390;52.130;21.218;2023-03-14T15:43:06;12.35;;;6.05;;
78989;SDS011;68390;52.130;21.218;2023-03-14T15:45:32;10.75;;;5.88;;
78989;SDS011;68390;52.130;21.218;2023-03-14T15:47:58;10.65;;;5.95;;
78989;SDS011;68390;52.130;21.218;2023-03-14T15:50:23;9.35;;;5.38;;
78989;SDS011;68390;52.130;21.218;2023-03-14T15:52:50;9.02;;;5.53;;
78989;SDS011;68390;52.130;21.218;2023-03-14T15:55:17;11.32;;;6.47;;
78989;SDS011;68390;52.130;21.218;2023-03-14T15:57:43;12.55;;;6.43;;
78989;SDS011;68390;52.130;21.218;2023-03-14T16:00:11;9.65;;;6.18;;
78989;SDS011;68390;52.130;21.218;2023-03-14T16:02:39;13.35;;;6.43;;
78989;SDS011;68390;52.130;21.218;2023-03-14T16:05:07;11.57;;;6.50;;
78989;SDS011;68390;52.130;21.218;2023-03-14T16:07:34;13.02;;;6.55;;